createdAt,value
2023-03-29T00:01:10.347Z,27.79
2023-03-29T00:03:40.485Z,27.86
2023-03-29T00:06:09.877Z,27.70
2023-03-29T00:08:39.142Z,27.78
2023-03-29T00:11:07.930Z,27.87
2023-03-29T00:13:37.136Z,28.01
2023-03-29T00:16:06.430Z,27.84
2023-03-29T00:18:35.539Z,28.04
2023-03-29T00:21:04.678Z,27.90
2023-03-29T00:23:33.926Z,27.94
2023-03-29T00:26:02.553Z,27.93
2023-03-29T00:28:31.695Z,27.97
2023-03-29T00:31:14.530Z,28.02
2023-03-29T00:33:43.948Z,28.07
2023-03-29T00:36:13.013Z,27.93
2023-03-29T00:38:42.243Z,28.01
2023-03-29T00:41:10.885Z,27.98
2023-03-29T00:43:54.321Z,27.93
2023-03-29T00:46:24.029Z,28.04
2023-03-29T00:48:54.578Z,28.06
2023-03-29T00:51:23.337Z,28.00
2023-03-29T00:53:59.428Z,27.96
2023-03-29T00:56:35.465Z,28.09
2023-03-29T00:59:13.925Z,28.13
2023-03-29T01:01:54.812Z,28.09
2023-03-29T01:04:34.149Z,28.14
2023-03-29T01:07:30.547Z,28.07
2023-03-29T01:10:22.252Z,27.88
2023-03-29T01:13:21.093Z,27.88
2023-03-29T01:15:49.958Z,28.14
2023-03-29T01:18:22.197Z,28.02
2023-03-29T01:21:12.723Z,27.75
2023-03-29T01:24:13.540Z,27.80
2023-03-29T01:27:15.897Z,27.82
2023-03-29T01:30:09.169Z,28.08
2023-03-29T01:32:48.274Z,27.95
2023-03-29T01:35:44.913Z,27.95
2023-03-29T01:38:43.667Z,28.00
2023-03-29T01:41:12.790Z,27.84
2023-03-29T01:43:49.879Z,27.84
2023-03-29T01:46:34.056Z,27.94
2023-03-29T01:49:28.720Z,27.83
2023-03-29T01:52:19.478Z,27.82
2023-03-29T01:54:56.995Z,27.92
2023-03-29T01:57:25.712Z,27.88
2023-03-29T01:59:55.868Z,28.02
2023-03-29T02:02:24.512Z,27.96
2023-03-29T02:04:58.053Z,28.06
2023-03-29T02:07:30.842Z,28.34
2023-03-29T02:09:59.666Z,28.17
2023-03-29T02:12:28.131Z,28.04
2023-03-29T02:14:59.972Z,28.14
2023-03-29T02:17:29.956Z,28.01
2023-03-29T02:20:20.930Z,28.20
2023-03-29T02:23:25.169Z,28.03
2023-03-29T02:25:54.134Z,28.33
2023-03-29T02:28:23.869Z,28.07
2023-03-29T02:31:49.214Z,28.37
2023-03-29T02:34:42.055Z,28.21
2023-03-29T02:37:13.622Z,28.21
2023-03-29T02:39:42.858Z,28.18
2023-03-29T02:42:11.713Z,28.41
2023-03-29T02:44:41.640Z,28.41
2023-03-29T02:47:39.218Z,28.21
2023-03-29T02:50:08.962Z,28.05
2023-03-29T02:52:41.622Z,28.26
2023-03-29T02:55:15.250Z,28.19
2023-03-29T02:57:44.097Z,28.13
2023-03-29T03:00:14.785Z,28.19
2023-03-29T03:02:44.557Z,28.15
2023-03-29T03:05:13.964Z,28.02
2023-03-29T03:07:42.869Z,28.16
2023-03-29T03:10:11.394Z,28.19
2023-03-29T03:12:40.558Z,28.08
2023-03-29T03:15:09.880Z,28.11
2023-03-29T03:17:41.916Z,28.07
2023-03-29T03:20:14.940Z,28.28
2023-03-29T03:22:49.147Z,28.14
2023-03-29T03:25:22.759Z,28.36
2023-03-29T03:27:52.288Z,28.18
2023-03-29T03:30:24.109Z,28.13
2023-03-29T03:33:11.958Z,28.09
2023-03-29T03:35:46.763Z,28.39
2023-03-29T03:38:17.678Z,28.42
2023-03-29T03:40:55.860Z,28.27
2023-03-29T03:43:25.704Z,28.33
2023-03-29T03:45:55.957Z,28.36
2023-03-29T03:48:28.100Z,28.31
2023-03-29T03:51:23.018Z,28.29
2023-03-29T03:53:53.125Z,28.43
2023-03-29T03:56:48.451Z,28.51
2023-03-29T03:59:32.130Z,28.64
2023-03-29T04:02:06.930Z,28.28
2023-03-29T04:04:38.180Z,28.57
2023-03-29T04:07:19.888Z,28.68
2023-03-29T04:10:18.522Z,28.81
2023-03-29T04:12:57.738Z,28.80
2023-03-29T04:15:26.854Z,28.80
2023-03-29T04:18:05.169Z,28.86
2023-03-29T04:20:44.471Z,28.95
2023-03-29T04:23:16.335Z,28.86
2023-03-29T04:25:47.046Z,29.07
2023-03-29T04:28:33.909Z,29.01
2023-03-29T04:31:14.509Z,29.09
2023-03-29T04:34:02.319Z,29.04
2023-03-29T04:36:31.424Z,29.28
2023-03-29T04:39:01.899Z,29.10
2023-03-29T04:41:32.950Z,29.15
2023-03-29T04:44:09.198Z,29.16
2023-03-29T04:46:40.484Z,29.24
2023-03-29T04:49:11.900Z,29.13
2023-03-29T04:51:44.188Z,29.24
2023-03-29T04:54:13.468Z,29.18
2023-03-29T04:57:08.940Z,29.26
2023-03-29T05:00:15.566Z,29.30
2023-03-29T05:03:05.050Z,29.19
2023-03-29T05:05:37.720Z,29.16
2023-03-29T05:08:07.381Z,29.29
2023-03-29T05:10:46.464Z,29.19
2023-03-29T05:13:17.031Z,29.32
2023-03-29T05:15:45.572Z,29.10
2023-03-29T05:18:14.745Z,29.16
2023-03-29T05:20:43.267Z,29.06
2023-03-29T05:23:21.085Z,28.99
2023-03-29T05:26:10.073Z,29.20
2023-03-29T05:28:41.099Z,29.23
2023-03-29T05:31:10.662Z,29.30
2023-03-29T05:33:42.181Z,29.16
2023-03-29T05:36:14.502Z,29.11
2023-03-29T05:38:48.035Z,29.26
2023-03-29T05:41:18.034Z,29.31
2023-03-29T05:44:07.668Z,28.91
2023-03-29T05:46:37.787Z,28.88
2023-03-29T05:49:07.488Z,29.16
2023-03-29T05:52:04.215Z,28.98
2023-03-29T05:54:35.106Z,29.18
2023-03-29T05:57:04.967Z,29.18
2023-03-29T05:59:34.207Z,29.05
2023-03-29T06:02:05.351Z,29.28
2023-03-29T06:04:36.801Z,29.73
2023-03-29T06:07:24.640Z,29.76
2023-03-29T06:10:16.566Z,29.68
2023-03-29T06:12:49.848Z,29.41
2023-03-29T06:15:22.747Z,29.31
2023-03-29T06:17:54.246Z,29.34
2023-03-29T06:20:23.287Z,29.41
2023-03-29T06:22:58.625Z,29.39
2023-03-29T06:25:27.516Z,29.41
2023-03-29T06:27:56.259Z,29.28
2023-03-29T06:30:25.228Z,29.58
2023-03-29T06:32:56.096Z,29.45
2023-03-29T06:35:44.769Z,29.68
2023-03-29T06:38:16.987Z,29.50
2023-03-29T06:41:13.007Z,29.44
2023-03-29T06:44:17.767Z,29.66
2023-03-29T06:47:08.466Z,29.54
2023-03-29T06:49:38.240Z,29.49
2023-03-29T06:52:31.626Z,29.46
2023-03-29T06:55:02.059Z,29.26
2023-03-29T06:57:32.340Z,29.28
2023-03-29T07:00:01.918Z,29.28
2023-03-29T07:02:51.253Z,29.15
2023-03-29T07:05:20.948Z,29.03
2023-03-29T07:07:55.527Z,28.94
2023-03-29T07:10:48.406Z,28.80
2023-03-29T07:13:52.864Z,28.69
2023-03-29T07:16:23.419Z,28.69
2023-03-29T07:19:10.945Z,28.64
2023-03-29T07:21:59.108Z,28.71
2023-03-29T07:24:47.094Z,28.46
2023-03-29T07:27:16.460Z,28.25
2023-03-29T07:29:50.365Z,28.36
2023-03-29T07:32:21.751Z,28.34
2023-03-29T07:34:58.641Z,28.34
2023-03-29T07:37:37.705Z,28.27
2023-03-29T07:40:16.465Z,28.31
2023-03-29T07:42:57.409Z,28.20
2023-03-29T07:45:29.313Z,28.25
2023-03-29T07:48:01.544Z,28.20
2023-03-29T07:50:43.798Z,28.20
2023-03-29T07:53:12.764Z,28.20
2023-03-29T07:55:47.929Z,28.11
2023-03-29T07:58:38.047Z,28.08
2023-03-29T08:01:09.559Z,28.14
2023-03-29T08:04:00.155Z,28.00
2023-03-29T08:06:50.184Z,27.96
2023-03-29T08:09:19.841Z,28.15
2023-03-29T08:11:49.520Z,28.07
2023-03-29T08:14:28.434Z,28.16
2023-03-29T08:17:06.417Z,28.35
2023-03-29T08:19:41.848Z,28.31
2023-03-29T08:22:23.838Z,28.24
2023-03-29T08:25:18.824Z,28.16
2023-03-29T08:27:51.601Z,28.42
2023-03-29T08:30:30.712Z,28.45
2023-03-29T08:33:01.587Z,28.62
2023-03-29T08:35:30.232Z,28.45
2023-03-29T08:38:16.517Z,28.55
2023-03-29T08:40:49.036Z,28.77
2023-03-29T08:44:07.677Z,28.95
2023-03-29T08:47:24.642Z,28.64
2023-03-29T08:49:55.557Z,28.96
2023-03-29T08:52:38.236Z,28.88
2023-03-29T08:55:43.835Z,29.08
2023-03-29T08:58:29.341Z,29.05
2023-03-29T09:01:01.849Z,29.05
2023-03-29T09:03:58.646Z,29.01
2023-03-29T09:06:54.424Z,28.82
2023-03-29T09:09:34.773Z,29.01
2023-03-29T09:12:43.488Z,28.66
2023-03-29T09:15:16.136Z,28.68
2023-03-29T09:18:02.825Z,28.89
2023-03-29T09:21:00.286Z,28.70
2023-03-29T09:23:55.277Z,29.37
2023-03-29T09:27:37.760Z,29.27
2023-03-29T09:30:28.881Z,29.21
2023-03-29T09:33:25.446Z,29.25
2023-03-29T09:36:37.396Z,29.22
2023-03-29T09:39:09.415Z,29.26
2023-03-29T09:41:51.061Z,29.18
2023-03-29T09:44:30.809Z,29.29
2023-03-29T09:47:31.891Z,29.02
2023-03-29T09:50:29.636Z,29.18
2023-03-29T09:53:00.373Z,29.28
2023-03-29T09:55:36.775Z,29.45
2023-03-29T09:58:23.013Z,29.52
2023-03-29T10:00:58.359Z,29.71
2023-03-29T10:03:31.320Z,30.02
2023-03-29T10:06:11.228Z,30.16
2023-03-29T10:08:51.903Z,30.23
2023-03-29T10:11:31.215Z,30.09
2023-03-29T10:14:06.744Z,30.10
2023-03-29T10:16:39.756Z,30.19
2023-03-29T10:19:23.215Z,30.27
2023-03-29T10:21:53.210Z,30.34
2023-03-29T10:24:23.508Z,30.50
2023-03-29T10:26:59.388Z,30.28
2023-03-29T10:29:28.090Z,30.59
2023-03-29T10:31:57.398Z,30.66
2023-03-29T10:34:28.245Z,30.78
2023-03-29T10:37:01.458Z,31.17
2023-03-29T10:39:34.154Z,31.43
2023-03-29T10:42:04.130Z,31.70
2023-03-29T10:44:35.966Z,31.67
2023-03-29T10:47:23.342Z,31.82
2023-03-29T10:49:57.247Z,31.50
2023-03-29T10:52:26.855Z,31.50
2023-03-29T10:54:55.958Z,32.08
2023-03-29T10:57:36.698Z,32.18
2023-03-29T11:00:11.073Z,32.14
2023-03-29T11:03:07.943Z,32.06
2023-03-29T11:05:57.642Z,32.25
2023-03-29T11:08:47.193Z,32.54
2023-03-29T11:11:44.641Z,32.02
2023-03-29T11:14:51.489Z,32.49
2023-03-29T11:17:24.066Z,32.59
2023-03-29T11:20:20.115Z,33.02
2023-03-29T11:23:32.649Z,32.85
2023-03-29T11:26:28.289Z,33.11
2023-03-29T11:29:21.060Z,33.14
2023-03-29T11:32:07.832Z,33.00
2023-03-29T11:34:58.049Z,33.04
2023-03-29T11:37:43.201Z,33.42
2023-03-29T11:41:05.135Z,33.31
2023-03-29T11:43:55.247Z,33.68
2023-03-29T11:46:52.613Z,33.65
2023-03-29T11:49:34.542Z,33.72
2023-03-29T11:52:17.898Z,33.92
2023-03-29T11:54:50.171Z,33.79
2023-03-29T11:57:37.797Z,34.09
2023-03-29T12:00:30.240Z,33.85
2023-03-29T12:03:41.619Z,33.82
2023-03-29T12:06:36.216Z,33.82
2023-03-29T12:09:15.502Z,33.97
2023-03-29T12:12:23.569Z,33.97
2023-03-29T12:15:11.345Z,33.91
2023-03-29T12:18:07.362Z,33.97
2023-03-29T12:20:39.949Z,33.76
2023-03-29T12:23:15.036Z,33.75
2023-03-29T12:26:06.929Z,33.62
2023-03-29T12:29:08.488Z,33.67
2023-03-29T12:32:25.001Z,33.08
2023-03-29T12:35:30.616Z,33.24
2023-03-29T12:38:30.498Z,33.50
2023-03-29T12:41:22.603Z,33.63
2023-03-29T12:44:14.248Z,33.49
2023-03-29T12:46:59.916Z,33.37
2023-03-29T12:49:36.466Z,33.20
2023-03-29T12:52:27.508Z,33.20
2023-03-29T12:55:03.066Z,33.34
2023-03-29T12:57:45.883Z,33.33
2023-03-29T13:00:23.899Z,33.46
2023-03-29T13:03:04.941Z,33.27
2023-03-29T13:05:37.062Z,33.38
2023-03-29T13:08:27.517Z,33.39
2023-03-29T13:10:56.572Z,33.39
2023-03-29T13:13:30.433Z,33.28
2023-03-29T13:16:17.637Z,33.29
2023-03-29T13:19:24.731Z,33.55
2023-03-29T13:22:21.453Z,33.42
2023-03-29T13:25:06.865Z,33.79
2023-03-29T13:27:39.853Z,33.43
2023-03-29T13:30:33.006Z,33.57
2023-03-29T13:33:35.463Z,33.82
2023-03-29T13:36:43.145Z,33.58
2023-03-29T13:39:25.102Z,33.92
2023-03-29T13:41:54.480Z,33.80
2023-03-29T13:44:22.891Z,33.49
2023-03-29T13:47:29.777Z,33.83
2023-03-29T13:50:12.614Z,33.51
2023-03-29T13:52:48.295Z,33.58
2023-03-29T13:55:22.349Z,33.32
2023-03-29T13:58:07.858Z,33.29
2023-03-29T14:01:32.952Z,32.84
2023-03-29T14:04:01.933Z,32.86
2023-03-29T14:06:35.302Z,32.87
2023-03-29T14:09:08.840Z,33.06
2023-03-29T14:11:37.324Z,33.13
2023-03-29T14:14:06.449Z,33.11
2023-03-29T14:16:39.867Z,33.12
2023-03-29T14:19:19.206Z,33.12
2023-03-29T14:21:47.703Z,33.33
2023-03-29T14:24:27.281Z,33.18
2023-03-29T14:26:55.726Z,33.25
2023-03-29T14:29:27.233Z,33.27
2023-03-29T14:31:55.800Z,33.20
2023-03-29T14:34:24.721Z,32.96
2023-03-29T14:36:54.320Z,32.96
2023-03-29T14:39:23.589Z,33.04
2023-03-29T14:41:54.970Z,33.15
2023-03-29T14:44:33.353Z,32.86
2023-03-29T14:47:02.420Z,33.16
2023-03-29T14:49:31.602Z,32.97
2023-03-29T14:52:00.498Z,33.08
2023-03-29T14:54:33.579Z,33.00
2023-03-29T14:57:06.679Z,33.00
2023-03-29T14:59:35.491Z,33.01
2023-03-29T15:02:04.584Z,33.20
2023-03-29T15:04:37.755Z,33.06
2023-03-29T15:07:06.525Z,33.04
2023-03-29T15:09:36.217Z,33.29
2023-03-29T15:12:04.888Z,33.22
2023-03-29T15:14:38.351Z,33.37
2023-03-29T15:17:22.544Z,33.33
2023-03-29T15:19:59.181Z,33.53
2023-03-29T15:22:34.544Z,33.52
2023-03-29T15:25:04.571Z,33.50
2023-03-29T15:27:42.672Z,33.92
2023-03-29T15:30:19.068Z,33.77
2023-03-29T15:32:49.283Z,33.77
2023-03-29T15:35:25.791Z,33.83
2023-03-29T15:37:56.689Z,33.84
2023-03-29T15:40:28.384Z,34.00
2023-03-29T15:42:57.072Z,34.18
2023-03-29T15:45:27.225Z,34.24
2023-03-29T15:47:56.031Z,34.38
2023-03-29T15:50:25.056Z,34.15
2023-03-29T15:53:05.399Z,34.50
2023-03-29T15:55:49.294Z,34.15
2023-03-29T15:58:20.835Z,34.15
2023-03-29T16:01:00.001Z,34.46
2023-03-29T16:03:28.683Z,34.52
2023-03-29T16:05:57.631Z,34.37
2023-03-29T16:08:26.221Z,34.56
2023-03-29T16:10:55.109Z,34.66
2023-03-29T16:13:23.715Z,34.73
2023-03-29T16:15:52.735Z,34.75
2023-03-29T16:18:21.422Z,34.77
2023-03-29T16:20:50.902Z,34.79
2023-03-29T16:23:19.452Z,34.78
2023-03-29T16:25:48.253Z,35.10
2023-03-29T16:28:16.917Z,35.11
2023-03-29T16:30:45.981Z,35.09
2023-03-29T16:33:14.527Z,35.20
2023-03-29T16:35:43.399Z,35.33
2023-03-29T16:38:11.991Z,35.51
2023-03-29T16:40:41.393Z,35.22
2023-03-29T16:43:17.072Z,35.34
2023-03-29T16:45:46.116Z,35.48
2023-03-29T16:48:17.487Z,35.31
2023-03-29T16:50:50.273Z,37.03
2023-03-29T16:53:19.948Z,37.69
2023-03-29T16:55:50.800Z,37.96
2023-03-29T16:58:19.512Z,38.05
2023-03-29T17:00:48.638Z,38.14
2023-03-29T17:03:17.283Z,38.33
2023-03-29T17:05:54.027Z,38.37
2023-03-29T17:08:22.585Z,38.84
2023-03-29T17:10:55.707Z,38.61
2023-03-29T17:13:24.559Z,38.80
2023-03-29T17:15:54.711Z,38.84
2023-03-29T17:18:24.903Z,38.67
2023-03-29T17:20:58.072Z,38.81
2023-03-29T17:23:26.920Z,38.63
2023-03-29T17:25:56.328Z,38.71
2023-03-29T17:28:25.084Z,37.96
2023-03-29T17:30:54.298Z,38.57
2023-03-29T17:33:26.315Z,38.78
2023-03-29T17:35:56.139Z,38.89
2023-03-29T17:38:26.320Z,39.23
2023-03-29T17:40:55.799Z,39.63
2023-03-29T17:43:24.459Z,40.09
2023-03-29T17:45:54.073Z,40.40
2023-03-29T17:48:23.877Z,39.68
2023-03-29T17:50:55.518Z,39.90
2023-03-29T17:53:24.490Z,39.87
2023-03-29T17:55:53.650Z,39.92
2023-03-29T17:58:22.269Z,39.30
2023-03-29T18:00:51.310Z,39.16
2023-03-29T18:03:19.979Z,39.06
2023-03-29T18:05:49.193Z,39.03
2023-03-29T18:08:17.932Z,38.71
2023-03-29T18:10:47.007Z,38.89
2023-03-29T18:13:16.484Z,39.73
2023-03-29T18:15:45.543Z,40.17
2023-03-29T18:18:14.839Z,39.79
2023-03-29T18:20:45.899Z,40.00
2023-03-29T18:23:14.459Z,40.16
2023-03-29T18:25:43.597Z,39.75
2023-03-29T18:28:12.226Z,39.40
2023-03-29T18:30:41.372Z,39.39
2023-03-29T18:33:10.068Z,39.50
2023-03-29T18:35:39.362Z,39.42
2023-03-29T18:38:08.055Z,39.67
2023-03-29T18:40:38.367Z,39.65
2023-03-29T18:43:07.105Z,39.86
2023-03-29T18:45:36.567Z,39.82
2023-03-29T18:48:08.205Z,40.21
2023-03-29T18:50:37.765Z,40.37
2023-03-29T18:53:07.130Z,40.58
2023-03-29T18:55:36.228Z,40.72
2023-03-29T18:58:04.869Z,40.60
2023-03-29T19:00:33.874Z,40.95
2023-03-29T19:03:02.934Z,40.89
2023-03-29T19:05:33.086Z,41.05
2023-03-29T19:08:03.036Z,40.96
2023-03-29T19:10:38.446Z,40.95
2023-03-29T19:13:07.437Z,40.94
2023-03-29T19:15:36.686Z,40.82
2023-03-29T19:18:05.704Z,41.11
2023-03-29T19:20:36.369Z,41.05
2023-03-29T19:23:06.915Z,41.18
2023-03-29T19:25:38.231Z,40.94
2023-03-29T19:28:10.516Z,40.99
2023-03-29T19:30:39.698Z,41.16
2023-03-29T19:33:08.771Z,41.06
2023-03-29T19:35:42.293Z,41.13
2023-03-29T19:38:11.354Z,41.03
2023-03-29T19:40:49.387Z,40.76
2023-03-29T19:43:20.862Z,41.01
2023-03-29T19:45:51.942Z,41.13
2023-03-29T19:48:23.376Z,40.77
2023-03-29T19:51:01.400Z,40.74
2023-03-29T19:53:31.068Z,40.55
2023-03-29T19:56:02.878Z,40.64
2023-03-29T19:58:32.710Z,40.73
2023-03-29T20:01:03.492Z,40.70
2023-03-29T20:03:36.409Z,40.38
2023-03-29T20:06:09.823Z,40.30
2023-03-29T20:08:40.765Z,40.52
2023-03-29T20:11:14.929Z,40.40
2023-03-29T20:13:47.955Z,40.59
2023-03-29T20:16:20.380Z,40.39
2023-03-29T20:18:51.339Z,40.43
2023-03-29T20:21:23.820Z,40.36
2023-03-29T20:23:53.041Z,40.36
2023-03-29T20:26:32.147Z,40.40
2023-03-29T20:29:01.011Z,40.16
2023-03-29T20:31:30.283Z,40.34
2023-03-29T20:33:59.374Z,40.37
2023-03-29T20:36:30.917Z,40.28
2023-03-29T20:39:00.507Z,40.30
2023-03-29T20:41:29.924Z,40.31
2023-03-29T20:43:58.951Z,40.13
2023-03-29T20:46:33.616Z,40.08
2023-03-29T20:49:07.569Z,40.06
2023-03-29T20:51:38.635Z,40.34
2023-03-29T20:54:10.208Z,40.04
2023-03-29T20:56:40.283Z,40.00
2023-03-29T20:59:11.065Z,40.10
2023-03-29T21:01:41.226Z,40.04
2023-03-29T21:04:11.037Z,39.90
2023-03-29T21:06:40.003Z,40.09
2023-03-29T21:09:08.765Z,39.84
2023-03-29T21:11:37.609Z,39.98
2023-03-29T21:14:06.166Z,40.04
2023-03-29T21:16:35.213Z,39.69
2023-03-29T21:19:03.632Z,39.74
2023-03-29T21:21:34.043Z,39.85
2023-03-29T21:24:04.492Z,39.83
2023-03-29T21:26:34.429Z,39.46
2023-03-29T21:29:03.089Z,39.65
2023-03-29T21:31:31.985Z,39.54
2023-03-29T21:34:00.523Z,39.37
2023-03-29T21:36:29.382Z,39.31
2023-03-29T21:38:57.808Z,39.47
2023-03-29T21:41:27.318Z,39.40
2023-03-29T21:43:55.848Z,39.46
2023-03-29T21:46:26.260Z,39.45
2023-03-29T21:48:54.840Z,39.38
2023-03-29T21:51:23.800Z,39.26
2023-03-29T21:53:52.329Z,39.32
2023-03-29T21:56:22.724Z,39.25
2023-03-29T21:58:51.183Z,39.08
2023-03-29T22:01:20.025Z,38.97
2023-03-29T22:03:48.602Z,39.12
2023-03-29T22:06:17.912Z,38.79
2023-03-29T22:08:46.997Z,39.17
2023-03-29T22:11:16.546Z,39.10
2023-03-29T22:13:45.449Z,39.23
2023-03-29T22:16:16.922Z,38.70
2023-03-29T22:18:53.112Z,38.98
2023-03-29T22:21:24.567Z,39.06
2023-03-29T22:23:55.309Z,38.85
2023-03-29T22:26:28.181Z,38.72
2023-03-29T22:28:57.335Z,38.80
2023-03-29T22:31:27.384Z,38.72
2023-03-29T22:33:56.477Z,38.76
2023-03-29T22:36:27.644Z,38.50
2023-03-29T22:38:56.538Z,38.63
2023-03-29T22:41:26.330Z,38.76
2023-03-29T22:43:57.128Z,38.55
2023-03-29T22:46:26.549Z,38.66
2023-03-29T22:48:55.255Z,38.53
2023-03-29T22:51:24.069Z,38.73
2023-03-29T22:53:52.569Z,38.30
2023-03-29T22:56:22.387Z,38.56
2023-03-29T22:58:51.323Z,38.76
2023-03-29T23:01:20.154Z,38.76
2023-03-29T23:03:48.627Z,38.76
2023-03-29T23:06:17.385Z,38.79
2023-03-29T23:08:45.835Z,38.62
2023-03-29T23:11:14.608Z,38.82
2023-03-29T23:13:43.558Z,38.76
2023-03-29T23:16:12.443Z,38.56
2023-03-29T23:18:41.226Z,38.80
2023-03-29T23:21:10.697Z,38.66
2023-03-29T23:23:39.406Z,38.84
2023-03-29T23:26:12.078Z,38.86
2023-03-29T23:28:41.205Z,39.03
2023-03-29T23:31:12.732Z,38.88
2023-03-29T23:33:42.920Z,39.06
2023-03-29T23:36:17.681Z,38.73
2023-03-29T23:38:47.140Z,38.81
2023-03-29T23:41:17.032Z,38.83
2023-03-29T23:43:47.493Z,38.90
2023-03-29T23:46:17.484Z,38.81
2023-03-29T23:48:47.369Z,38.83
2023-03-29T23:51:18.986Z,39.13
2023-03-29T23:53:48.910Z,39.04
2023-03-29T23:56:17.290Z,38.95
2023-03-29T23:58:46.312Z,39.03
